Pagrindinis puslapis
METAR-TAF:

METAR-TAF

Oro uostai :

For de Fransas, Martinika

platuma: 14-36N, ilguma: 061-00W, Aukštis: 5 m

Dabartinis oras

Ataskaita buvo paskelbta 33 minutes, ne 04:00 UTC
Vėjas 7 kt iš Rytų/Pietryčių
Temperatūra 27°C
Drėgmė 79%
Slėgis 1016 hPa
Matomumas 10 km arba daugiau
Mažai debesys ne aukštis 2100 ft

METAR: TFFF 290400Z AUTO 11007KT 9999 FEW021 27/23 Q1016

Laikas: 00:33 (04:33 UTC)

Prognozė

Ataskaita buvo paskelbta 5 valandos ir 33 minutes, ne 23:00 UTC
Prognozė galioja nuo 29 metu 00 UTC su 29 metu 24 UTC
Vėjas 10 kt iš Rytų
Matomumas 10 km arba daugiau
Išsisklaidę debesys ne aukštis 3000 ft
Tikimybė 30% :
Laikinai
nuo 29 metu 09 UTC su 29 metu 16 UTC
Matomumas: 4000 m
Išsisklaidę debesys ne aukštis 1800 ft, aukštai iškilę kamuoliniai debesys.
lietus
Tikimybė 40% :
Laikinai
nuo 29 metu 14 UTC su 29 metu 21 UTC
Vėjas 15 kt iš Rytų/Pietryčių su gūsio iki 25 kt

TAF: TFFF 282300Z 2900/2924 10010KT 9999 SCT030 PROB30 TEMPO 2909/2916 4000 SHRA SCT018TCU PROB40 TEMPO 2914/2921 11015G25KT

Orai ataskaitas ir orų prognozės (METAR, TAF).

turimą stotys yra geltonos ir raudonos taškus žemėlapyje.

Perkelti pele per norėdami pamatyti stoties vardą.

Tada spustelėkite, norėdami matyti oro stebėjimo ir prognozės.

Norėdami pakeisti žemėlapį: spustelėkite ant žalios mygtukų su juodo kryžiaus žemyn,; žalią mygtuką su brūkšneliu, jei norite nutolinti; arba žalių rodyklių gretimoms žemėlapius.


METAR-TAF: